Time;durP1;ratioP1;P1;durP2;ratioP2;P2;SDS_P1;SDS_P2;PMS_P1;PMS_P2;Temp;Humidity;BMP_temperature;BMP_pressure;BME280_temperature;BME280_humidity;BME280_pressure;Samples;Min_cycle;Max_cycle;Signal;HPM_P1;HPM_P2
2021/04/26 00:02:13;;;;;;;17.90;16.15;;;;;;;17.74;50.91;100212.53;5030927;28;20124;-73
2021/04/26 00:04:40;;;;;;;17.85;15.98;;;;;;;17.70;50.81;100203.16;5031027;28;20139;-74
2021/04/26 00:07:06;;;;;;;21.02;15.70;;;;;;;17.74;50.64;100215.16;5013637;28;20132;-74
2021/04/26 00:09:33;;;;;;;17.42;14.88;;;;;;;17.65;51.18;100205.31;5030325;28;20125;-73
2021/04/26 00:11:59;;;;;;;18.95;15.52;;;;;;;17.68;50.97;100204.22;5031299;28;20064;-74
2021/04/26 00:14:25;;;;;;;16.70;15.10;;;;;;;17.63;51.20;100204.59;5030666;28;20053;-74
2021/04/26 00:16:52;;;;;;;21.42;15.98;;;;;;;17.62;51.28;100208.19;5021535;28;20065;-74
2021/04/26 00:19:19;;;;;;;17.95;16.05;;;;;;;17.82;50.68;100216.34;5011116;28;20396;-73
2021/04/26 00:21:45;;;;;;;19.20;16.35;;;;;;;17.65;51.55;100204.47;5016573;28;20046;-73
2021/04/26 00:24:11;;;;;;;19.83;16.05;;;;;;;17.42;52.01;100199.25;5031122;28;20091;-73
2021/04/26 00:26:38;;;;;;;18.55;16.48;;;;;;;17.41;51.90;100212.53;5024806;28;20117;-74
2021/04/26 00:29:04;;;;;;;18.75;16.80;;;;;;;17.57;51.31;100207.72;4993873;28;20088;-72
2021/04/26 00:31:31;;;;;;;18.25;16.35;;;;;;;17.45;52.29;100203.41;5011221;28;20034;-73
2021/04/26 00:33:57;;;;;;;22.90;16.90;;;;;;;17.48;52.13;100200.56;5010899;28;20141;-73
2021/04/26 00:36:25;;;;;;;18.25;16.08;;;;;;;17.37;52.41;100206.69;5013192;28;20042;-73
2021/04/26 00:38:52;;;;;;;19.42;16.23;;;;;;;17.34;52.48;100206.91;5028467;28;20045;-73
2021/04/26 00:41:18;;;;;;;19.63;16.98;;;;;;;17.37;52.29;100203.22;5029518;28;20045;-73
2021/04/26 00:43:45;;;;;;;16.88;15.15;;;;;;;17.43;52.03;100198.28;5030689;28;20124;-74
2021/04/26 00:46:12;;;;;;;21.48;16.95;;;;;;;17.33;52.22;100191.22;5008923;28;20139;-74
2021/04/26 00:48:39;;;;;;;18.75;15.70;;;;;;;17.23;52.61;100189.31;5010302;28;20078;-74
2021/04/26 00:51:05;;;;;;;17.25;15.43;;;;;;;17.15;52.75;100183.81;5009757;28;20049;-74
2021/04/26 00:53:32;;;;;;;17.30;14.93;;;;;;;17.19;52.75;100185.22;5020228;28;20042;-74
2021/04/26 00:55:59;;;;;;;16.35;14.27;;;;;;;17.17;53.10;100187.16;5032461;28;20131;-74
2021/04/26 00:58:25;;;;;;;16.40;13.85;;;;;;;17.14;52.87;100184.75;5032956;28;20042;-73
2021/04/26 01:00:52;;;;;;;20.65;15.95;;;;;;;16.67;54.57;100186.63;4996757;28;20046;-73
2021/04/26 01:03:19;;;;;;;16.85;14.75;;;;;;;16.72;54.07;100184.50;5015101;28;20042;-72
2021/04/26 01:05:46;;;;;;;18.83;17.02;;;;;;;16.70;53.80;100183.75;5018010;28;20038;-72
2021/04/26 01:08:13;;;;;;;17.33;15.60;;;;;;;16.76;53.65;100187.72;5016490;28;20408;-72
2021/04/26 01:11:02;;;;;;;19.30;16.65;;;;;;;16.71;53.13;100190.69;5011327;28;20049;-72
2021/04/26 01:13:54;;;;;;;16.55;14.77;;;;;;;16.60;53.54;100195.91;5029511;28;20049;-73
2021/04/26 01:16:46;;;;;;;18.75;15.73;;;;;;;16.65;53.43;100193.78;5021275;28;20040;-73
2021/04/26 01:19:50;;;;;;;15.70;13.55;;;;;;;16.53;53.05;100197.34;5034357;28;20037;-73
2021/04/26 01:22:42;;;;;;;15.18;13.75;;;;;;;16.53;52.73;100197.34;5015847;28;20460;-72
2021/04/26 01:25:16;;;;;;;15.52;13.73;;;;;;;16.61;52.45;100199.38;5034070;28;20042;-72
2021/04/26 01:27:58;;;;;;;14.38;13.07;;;;;;;16.78;52.02;100193.72;5015856;28;20084;-73
2021/04/26 01:30:54;;;;;;;16.25;14.60;;;;;;;16.63;52.38;100200.13;4996269;28;20046;-73
2021/04/26 01:33:46;;;;;;;16.65;15.15;;;;;;;16.25;53.46;100195.94;5014975;28;20052;-73
2021/04/26 01:36:20;;;;;;;15.27;12.80;;;;;;;16.29;53.18;100199.19;5017431;28;20033;-73
2021/04/26 01:38:54;;;;;;;24.00;14.35;;;;;;;16.43;52.52;100191.09;5033614;28;20041;-72
2021/04/26 01:41:23;;;;;;;16.55;14.90;;;;;;;16.61;52.59;100186.22;5033150;28;20037;-73
2021/04/26 01:43:54;;;;;;;17.25;15.55;;;;;;;16.38;53.17;100174.81;5033933;28;20049;-74
2021/04/26 01:46:24;;;;;;;16.17;14.55;;;;;;;16.31;53.28;100181.50;5029985;28;20397;-74
2021/04/26 01:48:55;;;;;;;17.98;14.80;;;;;;;16.18;54.42;100177.13;4996320;28;20319;-74
2021/04/26 01:51:22;;;;;;;20.75;16.08;;;;;;;16.02;54.77;100181.84;5029031;28;20052;-74
2021/04/26 01:53:50;;;;;;;19.48;15.88;;;;;;;16.14;54.09;100183.59;5015667;28;20050;-73
2021/04/26 01:56:18;;;;;;;17.75;15.43;;;;;;;15.97;54.97;100176.94;4997411;28;20053;-70
2021/04/26 01:58:50;;;;;;;16.73;15.10;;;;;;;15.91;54.98;100177.38;5015594;28;20045;-71
2021/04/26 02:01:21;;;;;;;16.73;14.45;;;;;;;15.94;54.84;100192.09;5034383;28;20092;-71
2021/04/26 02:03:52;;;;;;;16.75;13.75;;;;;;;15.86;55.12;100181.31;5029945;28;20103;-71
2021/04/26 02:06:36;;;;;;;16.20;14.60;;;;;;;15.86;55.45;100176.03;4995998;28;20041;-70
2021/04/26 02:09:20;;;;;;;14.68;13.38;;;;;;;15.90;55.16;100175.72;5033833;28;20045;-70
2021/04/26 02:11:52;;;;;;;17.10;11.98;;;;;;;15.79;55.25;100178.28;5015795;28;20069;-70
2021/04/26 02:14:26;;;;;;;13.65;12.35;;;;;;;15.82;54.88;100175.44;5011331;28;20053;-70
2021/04/26 02:16:53;;;;;;;10.88;9.32;;;;;;;16.03;53.04;100172.16;5013102;28;20294;-70
2021/04/26 02:19:20;;;;;;;8.95;8.05;;;;;;;16.02;51.28;100173.13;5000192;28;20083;-70
2021/04/26 02:21:47;;;;;;;11.93;7.65;;;;;;;16.02;50.51;100178.38;5033108;28;20075;-70
2021/04/26 02:24:15;;;;;;;10.85;6.80;;;;;;;16.10;49.56;100179.50;5032421;28;20115;-70
2021/04/26 02:26:41;;;;;;;10.30;7.60;;;;;;;16.04;49.20;100173.88;5012467;28;20047;-70
2021/04/26 02:29:09;;;;;;;8.32;5.70;;;;;;;15.93;49.02;100174.66;5023454;28;20041;-70
2021/04/26 02:31:40;;;;;;;11.13;6.65;;;;;;;15.84;48.17;100168.28;4995359;28;20400;-70
2021/04/26 02:34:17;;;;;;;5.10;4.55;;;;;;;15.57;47.13;100163.22;5012335;28;20050;-70
2021/04/26 02:36:53;;;;;;;12.73;11.45;;;;;;;15.32;49.40;100173.78;5011582;28;20448;-70
2021/04/26 02:39:21;;;;;;;14.20;12.77;;;;;;;15.33;50.11;100168.41;5012043;28;20535;-70
2021/04/26 02:41:50;;;;;;;15.35;13.27;;;;;;;15.33;50.66;100172.81;4995217;28;20556;-70
2021/04/26 02:44:24;;;;;;;18.58;14.35;;;;;;;15.37;50.37;100166.41;5012725;28;20046;-70
2021/04/26 02:47:01;;;;;;;15.82;12.55;;;;;;;15.26;51.35;100159.28;4995459;28;20057;-71
2021/04/26 02:49:29;;;;;;;14.00;12.60;;;;;;;15.23;52.31;100158.66;4994704;28;20042;-70
2021/04/26 02:51:59;;;;;;;15.75;14.23;;;;;;;15.29;52.91;100158.25;5012498;28;20038;-71
2021/04/26 02:54:27;;;;;;;16.35;12.90;;;;;;;15.31;53.03;100153.72;5019639;28;20500;-71
2021/04/26 02:56:58;;;;;;;16.40;13.73;;;;;;;15.24;53.89;100166.47;5032195;28;20044;-71
2021/04/26 02:59:27;;;;;;;16.70;13.02;;;;;;;15.23;54.10;100172.63;5024818;28;20453;-71
2021/04/26 03:01:59;;;;;;;14.60;13.18;;;;;;;15.12;54.61;100178.63;5010638;28;20050;-70
2021/04/26 03:04:54;;;;;;;15.75;14.25;;;;;;;15.20;54.13;100175.50;5002525;28;20041;-71
2021/04/26 03:07:21;;;;;;;19.35;14.20;;;;;;;15.19;54.00;100174.66;5046983;28;20050;-70
2021/04/26 03:09:55;;;;;;;15.67;13.93;;;;;;;15.19;53.98;100161.53;5031911;28;20338;-70
2021/04/26 03:12:25;;;;;;;20.45;13.25;;;;;;;15.19;53.74;100158.91;5007199;28;20477;-69
2021/04/26 03:14:52;;;;;;;14.80;12.55;;;;;;;15.08;53.58;100160.59;5012387;28;20053;-70
2021/04/26 03:17:20;;;;;;;17.88;14.15;;;;;;;15.04;53.57;100154.72;4994783;28;20057;-70
2021/04/26 03:20:01;;;;;;;13.90;11.98;;;;;;;15.18;53.15;100156.38;4995969;28;20050;-70
2021/04/26 03:22:28;;;;;;;15.93;12.50;;;;;;;15.13;53.29;100156.72;4994881;28;20038;-70
2021/04/26 03:24:56;;;;;;;16.70;12.90;;;;;;;15.16;53.21;100166.97;5014204;28;20088;-70
2021/04/26 03:27:23;;;;;;;15.13;12.60;;;;;;;15.11;53.04;100171.72;5010469;28;20065;-70
2021/04/26 03:29:52;;;;;;;13.52;11.77;;;;;;;15.24;52.75;100166.47;5026920;28;20046;-70
2021/04/26 03:32:22;;;;;;;13.18;11.85;;;;;;;15.32;52.68;100173.78;5010142;28;20088;-70
2021/04/26 03:35:00;;;;;;;17.27;12.73;;;;;;;15.19;53.34;100182.53;4994259;28;20469;-70
2021/04/26 03:37:29;;;;;;;15.73;12.85;;;;;;;15.06;53.57;100189.56;5027022;28;20061;-70
2021/04/26 03:39:56;;;;;;;15.80;12.95;;;;;;;15.13;53.70;100187.38;5030854;28;20038;-70
2021/04/26 03:42:24;;;;;;;17.90;12.55;;;;;;;15.02;53.76;100197.75;5014100;28;20041;-71
2021/04/26 03:44:51;;;;;;;13.13;11.07;;;;;;;14.87;53.79;100186.56;5012584;28;20572;-70
2021/04/26 03:47:17;;;;;;;17.75;13.82;;;;;;;14.89;53.74;100182.88;5032165;28;20050;-71
2021/04/26 03:50:20;;;;;;;14.02;11.93;;;;;;;14.83;53.78;100185.06;4978822;28;20046;-72
2021/04/26 03:53:05;;;;;;;13.52;12.13;;;;;;;14.66;54.21;100187.06;5011468;28;20185;-70
2021/04/26 03:55:58;;;;;;;12.85;11.55;;;;;;;14.83;53.71;100192.94;4993604;28;20080;-70
2021/04/26 03:58:25;;;;;;;14.75;11.98;;;;;;;14.77;54.07;100203.88;5010108;28;20100;-70
2021/04/26 04:00:52;;;;;;;15.25;13.65;;;;;;;14.81;53.65;100205.34;5014668;28;20404;-70
2021/04/26 04:03:18;;;;;;;13.15;11.80;;;;;;;14.71;54.25;100197.25;4994199;28;20046;-70
2021/04/26 04:05:48;;;;;;;13.65;11.88;;;;;;;14.69;53.81;100201.75;5010794;28;20046;-71
2021/04/26 04:08:33;;;;;;;12.38;10.98;;;;;;;14.67;54.03;100203.66;5012148;28;20068;-69
2021/04/26 04:11:15;;;;;;;16.02;12.18;;;;;;;14.72;54.09;100211.22;5012677;28;20038;-69
2021/04/26 04:14:13;;;;;;;15.05;12.57;;;;;;;14.68;54.03;100221.91;4995446;28;20041;-69
2021/04/26 04:16:44;;;;;;;15.57;12.68;;;;;;;14.70;53.97;100223.56;4993482;28;20558;-69
2021/04/26 04:19:10;;;;;;;12.77;11.45;;;;;;;14.76;53.91;100215.31;5012350;28;20524;-69
2021/04/26 04:21:38;;;;;;;17.45;12.05;;;;;;;14.67;54.18;100208.91;5010480;28;20555;-69
2021/04/26 04:24:08;;;;;;;16.98;11.57;;;;;;;14.70;53.97;100207.84;5010967;28;20061;-69
2021/04/26 04:26:35;;;;;;;13.73;12.27;;;;;;;14.74;53.84;100204.06;5009596;28;20046;-70
2021/04/26 04:29:06;;;;;;;12.98;10.38;;;;;;;14.75;53.63;100201.34;5031247;28;20045;-70
2021/04/26 04:31:53;;;;;;;13.30;11.68;;;;;;;14.73;53.93;100197.16;5013337;28;20050;-69
2021/04/26 04:34:39;;;;;;;25.25;10.98;;;;;;;14.88;53.28;100199.56;4984362;28;20054;-68
2021/04/26 04:37:24;;;;;;;16.00;10.88;;;;;;;14.82;53.56;100202.63;5015305;28;20247;-70
2021/04/26 04:40:09;;;;;;;13.07;10.98;;;;;;;14.81;53.25;100202.72;5017387;28;20200;-70
2021/04/26 04:42:52;;;;;;;18.02;11.52;;;;;;;14.80;53.29;100208.91;5013863;28;20120;-70
2021/04/26 04:45:21;;;;;;;14.43;12.93;;;;;;;14.84;52.97;100210.38;4997870;28;20524;-69
2021/04/26 04:48:06;;;;;;;12.90;11.45;;;;;;;14.83;52.88;100220.03;5032207;28;20049;-69
2021/04/26 04:50:45;;;;;;;15.02;11.82;;;;;;;14.91;52.90;100222.13;5014919;28;20045;-69
2021/04/26 04:53:12;;;;;;;13.40;12.10;;;;;;;14.94;52.73;100221.94;5016473;28;20052;-69
2021/04/26 04:55:38;;;;;;;15.57;13.70;;;;;;;14.94;52.83;100227.16;5033436;28;20196;-69
2021/04/26 04:58:05;;;;;;;17.13;11.77;;;;;;;14.94;52.81;100232.41;4997351;28;20049;-69
2021/04/26 05:00:31;;;;;;;16.08;11.63;;;;;;;15.02;52.65;100224.00;5032595;28;20045;-69
2021/04/26 05:03:16;;;;;;;13.68;12.23;;;;;;;14.98;52.77;100228.66;5019304;28;20052;-71
2021/04/26 05:06:01;;;;;;;12.55;10.95;;;;;;;15.01;52.67;100238.09;5031808;28;20159;-70
2021/04/26 05:09:12;;;;;;;13.88;11.90;;;;;;;14.96;52.93;100237.56;4927991;29;20059;-71
2021/04/26 05:11:58;;;;;;;15.93;11.10;;;;;;;15.02;52.65;100245.88;4927222;29;20058;-71
2021/04/26 05:14:28;;;;;;;14.90;10.63;;;;;;;14.94;53.07;100242.91;4988468;28;20056;-71
2021/04/26 05:16:56;;;;;;;16.77;11.35;;;;;;;14.81;53.56;100249.97;5035872;28;20091;-70
2021/04/26 05:19:22;;;;;;;19.13;11.27;;;;;;;14.92;52.96;100260.56;5034778;28;20045;-71
2021/04/26 05:21:49;;;;;;;17.98;11.23;;;;;;;14.86;53.40;100258.34;5036609;28;20459;-70
2021/04/26 05:24:15;;;;;;;12.98;11.57;;;;;;;14.98;53.56;100262.78;5034441;28;20049;-70
2021/04/26 05:26:42;;;;;;;13.30;11.13;;;;;;;15.03;53.72;100262.47;5016088;28;20523;-69
2021/04/26 05:29:13;;;;;;;14.50;11.73;;;;;;;14.94;54.13;100261.28;5016641;28;20034;-69
2021/04/26 05:31:40;;;;;;;21.00;12.40;;;;;;;14.75;54.99;100259.06;5034586;28;20080;-69
2021/04/26 05:34:07;;;;;;;15.73;14.05;;;;;;;14.87;54.72;100258.25;5015838;28;20141;-70
2021/04/26 05:36:37;;;;;;;18.20;13.68;;;;;;;14.99;54.26;100261.81;5034632;28;20038;-68
2021/04/26 05:39:05;;;;;;;17.90;13.25;;;;;;;15.15;53.60;100251.94;5017083;28;20084;-69
2021/04/26 05:41:34;;;;;;;16.55;12.70;;;;;;;14.92;53.98;100250.06;5033581;28;20041;-69
2021/04/26 05:44:02;;;;;;;28.88;22.70;;;;;;;14.84;54.55;100257.59;5015641;28;20088;-69
2021/04/26 05:46:36;;;;;;;45.22;31.20;;;;;;;14.90;54.70;100254.56;5044222;28;20049;-67
2021/04/26 05:49:03;;;;;;;49.33;27.40;;;;;;;15.20;53.43;100244.59;5028750;28;20042;-70
2021/04/26 05:51:30;;;;;;;21.10;17.83;;;;;;;15.32;52.33;100249.94;5030609;28;20119;-71
2021/04/26 05:53:56;;;;;;;29.60;16.25;;;;;;;15.18;52.98;100246.50;5033172;28;20061;-71
2021/04/26 05:56:23;;;;;;;33.83;13.63;;;;;;;15.40;52.65;100245.84;5026267;28;20034;-73
2021/04/26 05:58:50;;;;;;;24.10;13.05;;;;;;;15.16;54.45;100251.00;5033452;28;20518;-72
2021/04/26 06:01:17;;;;;;;27.10;11.63;;;;;;;15.33;53.85;100249.81;5033421;28;20071;-71
2021/04/26 06:03:44;;;;;;;20.77;12.30;;;;;;;15.08;54.85;100247.25;5033727;28;20535;-71
2021/04/26 06:06:10;;;;;;;17.92;13.77;;;;;;;14.80;56.15;100243.00;5033576;28;20045;-68
2021/04/26 06:08:37;;;;;;;22.45;13.45;;;;;;;15.14;55.36;100244.19;5035291;28;20124;-69
2021/04/26 06:11:03;;;;;;;14.88;13.00;;;;;;;15.35;54.78;100253.22;5033374;28;20129;-69
2021/04/26 06:13:30;;;;;;;18.13;12.57;;;;;;;15.44;53.71;100257.78;5014394;28;20095;-68
2021/04/26 06:15:56;;;;;;;18.58;13.10;;;;;;;15.85;52.04;100250.59;5033683;28;20049;-71
2021/04/26 06:18:24;;;;;;;22.55;14.57;;;;;;;15.78;52.51;100246.75;5033684;28;20041;-70
2021/04/26 06:20:52;;;;;;;19.30;12.07;;;;;;;16.23;51.89;100235.50;5034416;28;20045;-65
2021/04/26 06:23:20;;;;;;;14.70;13.00;;;;;;;16.37;51.32;100238.91;5034479;28;20056;-70
2021/04/26 06:25:47;;;;;;;20.58;13.32;;;;;;;16.36;50.91;100234.63;5033873;28;20119;-71
2021/04/26 06:28:16;;;;;;;15.15;12.68;;;;;;;16.32;50.90;100238.41;5031619;28;20492;-67
2021/04/26 06:30:44;;;;;;;14.50;13.10;;;;;;;16.34;50.81;100236.50;5024060;28;20073;-65
2021/04/26 06:33:17;;;;;;;21.70;14.65;;;;;;;16.49;50.71;100232.72;5025219;28;20129;-70
2021/04/26 06:35:45;;;;;;;19.58;14.07;;;;;;;16.38;50.99;100232.69;5032869;28;20041;-69
2021/04/26 06:38:12;;;;;;;18.80;13.48;;;;;;;16.13;51.58;100229.22;5032673;28;20041;-69
2021/04/26 06:40:40;;;;;;;14.10;12.32;;;;;;;16.07;52.07;100229.69;5032061;28;20100;-71
2021/04/26 06:43:06;;;;;;;15.63;13.43;;;;;;;16.07;51.98;100237.56;5032947;28;20069;-70
2021/04/26 06:45:33;;;;;;;17.92;14.13;;;;;;;16.12;51.65;100242.50;5033669;28;20461;-72
2021/04/26 06:48:00;;;;;;;18.92;14.80;;;;;;;15.89;52.60;100242.38;5033160;28;20502;-71
2021/04/26 06:50:27;;;;;;;18.90;16.48;;;;;;;15.93;52.54;100249.09;5032826;28;20041;-72
2021/04/26 06:52:55;;;;;;;17.90;12.95;;;;;;;15.68;53.67;100238.66;5033892;28;20092;-69
2021/04/26 06:55:23;;;;;;;19.80;14.73;;;;;;;15.62;53.51;100247.78;5027578;28;20077;-70
2021/04/26 06:57:51;;;;;;;26.20;17.35;;;;;;;15.64;53.53;100245.91;5032200;28;20043;-68
2021/04/26 07:00:19;;;;;;;21.20;17.15;;;;;;;15.59;53.89;100248.00;5030800;28;20124;-66
2021/04/26 07:02:47;;;;;;;16.17;14.20;;;;;;;15.71;53.83;100251.56;5030448;28;20049;-68
2021/04/26 07:05:15;;;;;;;20.73;14.38;;;;;;;15.94;52.93;100247.31;5031551;28;20037;-65
2021/04/26 07:07:41;;;;;;;16.20;13.02;;;;;;;16.17;52.41;100240.38;5033378;28;20042;-65
2021/04/26 07:10:09;;;;;;;14.98;13.45;;;;;;;16.35;51.69;100239.03;5031941;28;20054;-66
2021/04/26 07:12:35;;;;;;;13.57;12.23;;;;;;;16.46;51.41;100239.06;5032059;28;20045;-66
2021/04/26 07:15:07;;;;;;;17.15;13.70;;;;;;;16.28;51.59;100243.06;5032807;28;20438;-65
2021/04/26 07:17:34;;;;;;;15.75;13.63;;;;;;;16.26;51.59;100230.97;5031563;28;20037;-65
2021/04/26 07:20:06;;;;;;;23.70;14.02;;;;;;;15.83;50.86;100234.94;5031490;28;20052;-66
2021/04/26 07:22:33;;;;;;;16.50;14.80;;;;;;;16.10;51.08;100221.59;5030582;28;20049;-67
2021/04/26 07:25:00;;;;;;;25.05;15.77;;;;;;;16.35;50.61;100219.75;5031765;28;20037;-66
2021/04/26 07:27:28;;;;;;;20.13;14.50;;;;;;;16.47;50.44;100224.97;5029574;28;20034;-66
2021/04/26 07:29:55;;;;;;;16.55;14.52;;;;;;;16.56;50.41;100219.94;5030674;28;20045;-69
2021/04/26 07:32:21;;;;;;;19.60;14.05;;;;;;;16.45;50.66;100215.50;5025722;28;20068;-69
2021/04/26 07:34:48;;;;;;;16.08;14.48;;;;;;;16.52;50.81;100208.84;5028443;28;20130;-67
2021/04/26 07:37:14;;;;;;;23.13;14.75;;;;;;;16.50;50.95;100194.94;5013802;28;20555;-67
2021/04/26 07:39:41;;;;;;;16.63;14.90;;;;;;;16.53;50.92;100199.97;5030004;28;20065;-67
2021/04/26 07:42:08;;;;;;;16.73;14.30;;;;;;;16.28;52.17;100208.84;5020467;28;20058;-68
2021/04/26 07:44:34;;;;;;;19.23;16.10;;;;;;;15.64;53.67;100196.00;5013597;28;20037;-69
2021/04/26 07:47:00;;;;;;;19.10;13.90;;;;;;;15.73;53.78;100189.25;5030918;28;20550;-68
2021/04/26 07:49:27;;;;;;;23.60;14.65;;;;;;;15.54;53.90;100199.34;5029573;28;20030;-67
2021/04/26 07:51:59;;;;;;;23.73;15.95;;;;;;;15.69;53.78;100193.88;5027778;28;20125;-67
2021/04/26 07:54:25;;;;;;;27.92;16.67;;;;;;;15.85;53.13;100183.09;5029394;28;20073;-66
2021/04/26 07:56:52;;;;;;;25.85;17.05;;;;;;;15.72;54.03;100182.31;5027962;28;20516;-67
2021/04/26 07:59:21;;;;;;;19.38;15.70;;;;;;;15.66;53.73;100194.13;5021721;28;20107;-69
2021/04/26 08:01:48;;;;;;;19.02;17.00;;;;;;;15.40;54.90;100195.09;5021661;28;20541;-69
2021/04/26 08:04:15;;;;;;;19.35;16.35;;;;;;;15.15;55.85;100212.56;5028595;28;20148;-68
2021/04/26 08:06:41;;;;;;;23.17;15.70;;;;;;;15.31;55.40;100203.63;5029167;28;20068;-67
2021/04/26 08:09:08;;;;;;;22.15;17.65;;;;;;;15.44;54.54;100215.75;5031368;28;20056;-65
2021/04/26 08:11:35;;;;;;;21.67;15.70;;;;;;;15.72;54.04;100219.13;5018598;28;20145;-68
2021/04/26 08:14:02;;;;;;;22.55;15.82;;;;;;;15.86;54.14;100220.72;5011834;28;20440;-68
2021/04/26 08:16:28;;;;;;;23.60;17.15;;;;;;;16.07;53.56;100223.59;5010665;28;20045;-67
2021/04/26 08:18:55;;;;;;;23.55;17.05;;;;;;;16.15;53.19;100224.72;5028914;28;20076;-67
2021/04/26 08:21:22;;;;;;;21.40;16.27;;;;;;;16.23;53.07;100218.88;5030146;28;20037;-66
2021/04/26 08:23:49;;;;;;;32.78;21.05;;;;;;;16.33;52.61;100221.69;5030723;28;20048;-68
2021/04/26 08:26:16;;;;;;;18.73;16.55;;;;;;;16.37;52.34;100223.13;5032137;28;20396;-66
2021/04/26 08:28:43;;;;;;;20.77;16.23;;;;;;;16.18;52.65;100231.53;5029921;28;20053;-66
2021/04/26 08:31:09;;;;;;;19.60;16.75;;;;;;;16.41;51.83;100224.59;5025928;28;20113;-68
2021/04/26 08:33:39;;;;;;;19.77;16.55;;;;;;;16.53;51.46;100226.28;5011103;28;20066;-67
2021/04/26 08:36:06;;;;;;;25.48;18.25;;;;;;;16.44;51.64;100226.97;5021091;28;20046;-67
2021/04/26 08:38:33;;;;;;;20.13;17.42;;;;;;;16.30;52.05;100233.28;5032339;28;20076;-68
2021/04/26 08:40:59;;;;;;;20.00;16.80;;;;;;;16.38;51.99;100237.97;5030253;28;20572;-68
2021/04/26 08:43:26;;;;;;;22.60;17.08;;;;;;;16.32;51.97;100227.91;5028728;28;20052;-68
2021/04/26 08:45:55;;;;;;;25.85;17.92;;;;;;;16.32;52.32;100238.41;5030681;28;20500;-67
2021/04/26 08:48:24;;;;;;;20.52;17.95;;;;;;;16.17;52.89;100241.22;5027475;28;20208;-67
2021/04/26 08:50:51;;;;;;;19.20;16.20;;;;;;;16.23;53.05;100237.28;5030651;28;20377;-71
2021/04/26 08:53:17;;;;;;;20.55;16.52;;;;;;;16.29;52.88;100244.72;5008212;28;20073;-69
2021/04/26 08:55:44;;;;;;;23.33;16.30;;;;;;;16.23;52.95;100240.75;5010998;28;20045;-71
2021/04/26 08:58:10;;;;;;;25.15;16.98;;;;;;;16.25;52.99;100243.28;5020559;28;20125;-67
2021/04/26 09:00:37;;;;;;;22.92;17.60;;;;;;;16.41;52.71;100245.63;5029722;28;20092;-67
2021/04/26 09:03:07;;;;;;;24.10;16.92;;;;;;;16.34;53.12;100254.91;5030311;28;20045;-67
2021/04/26 09:05:36;;;;;;;19.25;16.40;;;;;;;16.33;53.06;100261.13;5031444;28;20448;-66
2021/04/26 09:08:07;;;;;;;19.30;17.30;;;;;;;16.43;52.65;100267.41;5020952;28;20046;-65
2021/04/26 09:10:50;;;;;;;19.48;17.35;;;;;;;16.48;52.27;100262.63;5026287;28;20088;-65
2021/04/26 09:13:41;;;;;;;21.75;16.55;;;;;;;16.46;52.55;100264.56;5027913;28;20037;-66
2021/04/26 09:16:11;;;;;;;17.92;16.00;;;;;;;16.44;52.52;100258.53;5010828;28;20373;-67
2021/04/26 09:19:04;;;;;;;21.27;17.42;;;;;;;16.27;52.85;100251.91;5032836;28;20107;-68
2021/04/26 09:21:35;;;;;;;19.88;16.20;;;;;;;16.27;52.86;100251.06;5028942;28;20124;-66
2021/04/26 09:24:25;;;;;;;20.17;17.38;;;;;;;16.30;52.76;100243.81;5031774;28;20041;-66
2021/04/26 09:26:53;;;;;;;18.20;16.27;;;;;;;16.34;53.13;100242.59;5029978;28;20042;-66
2021/04/26 09:29:25;;;;;;;20.08;17.77;;;;;;;16.04;53.53;100248.34;5029419;28;20045;-66
2021/04/26 09:32:13;;;;;;;26.58;16.83;;;;;;;16.14;53.42;100262.50;5033310;28;20042;-67
2021/04/26 09:34:45;;;;;;;25.33;18.70;;;;;;;16.11;53.94;100267.13;5028862;28;20103;-68
2021/04/26 09:37:19;;;;;;;22.65;17.42;;;;;;;15.99;54.37;100279.38;5032269;28;20057;-68
2021/04/26 09:40:06;;;;;;;24.25;16.60;;;;;;;16.20;53.90;100288.34;5033380;28;20053;-69
2021/04/26 09:42:50;;;;;;;21.25;16.25;;;;;;;16.18;53.96;100279.69;5013867;28;20096;-68
2021/04/26 09:45:31;;;;;;;21.70;16.90;;;;;;;16.33;53.33;100276.91;5016089;28;20164;-68
2021/04/26 09:48:13;;;;;;;18.55;15.50;;;;;;;16.41;52.61;100271.94;5031779;28;20069;-66
2021/04/26 09:51:04;;;;;;;17.77;15.15;;;;;;;16.37;52.34;100267.84;5025580;28;20052;-68
2021/04/26 09:53:35;;;;;;;18.67;16.88;;;;;;;16.39;52.69;100269.41;5031037;28;20038;-67
2021/04/26 09:56:26;;;;;;;18.40;16.48;;;;;;;16.34;53.01;100275.94;5023730;28;20046;-67
2021/04/26 09:58:54;;;;;;;19.83;16.27;;;;;;;16.44;53.05;100280.44;5030742;28;20053;-67
2021/04/26 10:01:23;;;;;;;30.20;16.98;;;;;;;16.46;53.45;100272.44;5028918;28;20468;-66
2021/04/26 10:03:51;;;;;;;22.08;17.25;;;;;;;16.39;55.44;100284.34;5024475;28;20041;-68
2021/04/26 10:06:24;;;;;;;21.92;17.55;;;;;;;16.43;55.63;100286.66;5032008;28;20041;-67
2021/04/26 10:08:56;;;;;;;19.67;17.20;;;;;;;16.49;56.11;100293.25;5032747;28;20095;-68
2021/04/26 10:11:26;;;;;;;25.85;19.20;;;;;;;16.54;56.40;100291.13;5032644;28;20095;-66
2021/04/26 10:14:14;;;;;;;22.15;18.05;;;;;;;16.48;56.98;100281.88;5032213;28;20065;-68
2021/04/26 10:16:44;;;;;;;23.00;17.48;;;;;;;16.45;58.05;100271.56;5031606;28;20041;-67
2021/04/26 10:19:14;;;;;;;20.60;18.10;;;;;;;16.50;57.68;100279.97;5031620;28;20492;-67
2021/04/26 10:21:56;;;;;;;19.95;16.65;;;;;;;16.44;57.10;100276.97;5031404;28;20037;-67
2021/04/26 10:24:26;;;;;;;21.08;18.85;;;;;;;16.54;56.66;100271.88;5030096;28;20064;-67
2021/04/26 10:26:56;;;;;;;23.80;18.55;;;;;;;16.35;56.76;100269.75;5031638;28;20037;-67
2021/04/26 10:29:35;;;;;;;21.98;18.35;;;;;;;16.38;56.45;100259.00;5028212;28;20775;-68
2021/04/26 10:32:10;;;;;;;23.70;20.08;;;;;;;16.37;56.04;100273.13;5024463;28;20500;-68
2021/04/26 10:34:57;;;;;;;20.25;16.67;;;;;;;16.35;57.64;100275.00;5025172;28;20046;-68
2021/04/26 10:37:28;;;;;;;30.27;19.77;;;;;;;16.35;58.34;100288.16;5015438;28;20120;-68
2021/04/26 10:39:58;;;;;;;24.60;19.05;;;;;;;16.41;58.16;100295.63;5031696;28;20041;-68
2021/04/26 10:42:39;;;;;;;27.23;20.55;;;;;;;16.34;59.00;100297.00;5032855;28;20086;-67
2021/04/26 10:45:13;;;;;;;22.88;19.25;;;;;;;16.30;59.69;100292.91;5032945;28;20504;-67
2021/04/26 10:47:42;;;;;;;30.42;21.00;;;;;;;16.41;59.22;100283.31;5033450;28;20590;-69
2021/04/26 10:50:12;;;;;;;23.73;21.02;;;;;;;16.38;58.19;100278.25;5031776;28;20075;-68
2021/04/26 10:52:41;;;;;;;20.83;18.65;;;;;;;16.45;57.88;100287.38;5030639;28;20121;-68
2021/04/26 10:55:20;;;;;;;26.60;20.42;;;;;;;16.46;58.60;100285.59;5031261;28;20037;-69
2021/04/26 10:58:10;;;;;;;23.58;20.65;;;;;;;16.57;58.34;100279.53;5014800;28;20054;-68
2021/04/26 11:00:37;;;;;;;22.25;19.52;;;;;;;16.71;57.38;100274.94;5022592;28;20073;-69
2021/04/26 11:03:06;;;;;;;22.73;18.25;;;;;;;16.74;57.70;100276.50;5030798;28;20400;-69
2021/04/26 11:05:38;;;;;;;23.67;18.65;;;;;;;16.85;57.00;100276.53;5031521;28;20080;-69
2021/04/26 11:08:29;;;;;;;23.45;18.98;;;;;;;16.84;56.16;100274.03;5029004;28;20042;-69
2021/04/26 11:11:00;;;;;;;25.75;19.38;;;;;;;16.84;56.49;100274.03;5025295;28;20045;-69
2021/04/26 11:13:30;;;;;;;29.10;19.48;;;;;;;16.90;56.79;100273.56;5030198;28;20073;-70
2021/04/26 11:16:04;;;;;;;27.15;21.02;;;;;;;16.93;57.16;100270.69;5030971;28;20079;-71
2021/04/26 11:18:31;;;;;;;29.33;19.73;;;;;;;16.86;57.13;100266.84;5012995;28;20049;-68
2021/04/26 11:20:58;;;;;;;29.85;20.15;;;;;;;16.73;57.63;100265.16;5030435;28;20315;-67
2021/04/26 11:23:46;;;;;;;28.55;20.02;;;;;;;16.76;57.59;100269.31;5029055;28;20116;-71
2021/04/26 11:26:22;;;;;;;26.90;20.40;;;;;;;16.99;56.34;100267.56;5028907;28;20073;-73
2021/04/26 11:29:08;;;;;;;26.38;22.00;;;;;;;16.90;57.38;100252.50;5017052;28;20060;-71
2021/04/26 11:31:44;;;;;;;23.45;19.05;;;;;;;16.69;57.76;100253.13;5009374;28;20088;-72